sensor_id;sensor_type;location;lat;lon;timestamp;temperature;humidity
57652;DHT22;43480;53.116;6.734;2022-09-02T00:02:00;14.20;99.90
57652;DHT22;43480;53.116;6.734;2022-09-02T00:04:26;14.20;99.90
57652;DHT22;43480;53.116;6.734;2022-09-02T00:06:52;14.20;99.90
57652;DHT22;43480;53.116;6.734;2022-09-02T00:09:20;14.10;99.90
57652;DHT22;43480;53.116;6.734;2022-09-02T00:11:46;14.10;99.90
57652;DHT22;43480;53.116;6.734;2022-09-02T00:14:13;14.10;99.90
57652;DHT22;43480;53.116;6.734;2022-09-02T00:16:39;14.10;99.90
57652;DHT22;43480;53.116;6.734;2022-09-02T00:19:06;14.10;99.90
57652;DHT22;43480;53.116;6.734;2022-09-02T00:21:33;14.00;99.90
57652;DHT22;43480;53.116;6.734;2022-09-02T00:24:00;14.00;99.90
57652;DHT22;43480;53.116;6.734;2022-09-02T00:26:26;13.90;99.90
57652;DHT22;43480;53.116;6.734;2022-09-02T00:28:52;13.80;99.90
57652;DHT22;43480;53.116;6.734;2022-09-02T00:31:17;13.90;99.90
57652;DHT22;43480;53.116;6.734;2022-09-02T00:33:43;13.90;99.90
57652;DHT22;43480;53.116;6.734;2022-09-02T00:36:10;13.80;99.90
57652;DHT22;43480;53.116;6.734;2022-09-02T00:38:35;13.80;99.90
57652;DHT22;43480;53.116;6.734;2022-09-02T00:41:03;13.70;99.90
57652;DHT22;43480;53.116;6.734;2022-09-02T00:46:01;13.60;99.90
57652;DHT22;43480;53.116;6.734;2022-09-02T00:48:27;13.70;99.90
57652;DHT22;43480;53.116;6.734;2022-09-02T00:50:52;13.60;99.90
57652;DHT22;43480;53.116;6.734;2022-09-02T00:53:18;13.60;99.90
57652;DHT22;43480;53.116;6.734;2022-09-02T00:55:45;13.60;99.90
57652;DHT22;43480;53.116;6.734;2022-09-02T00:58:17;13.60;99.90
57652;DHT22;43480;53.116;6.734;2022-09-02T01:00:45;13.50;99.90
57652;DHT22;43480;53.116;6.734;2022-09-02T01:03:14;13.50;99.90
57652;DHT22;43480;53.116;6.734;2022-09-02T01:05:41;13.50;99.90
57652;DHT22;43480;53.116;6.734;2022-09-02T01:08:17;13.50;99.90
57652;DHT22;43480;53.116;6.734;2022-09-02T01:10:44;13.50;99.90
57652;DHT22;43480;53.116;6.734;2022-09-02T01:13:11;13.40;99.90
57652;DHT22;43480;53.116;6.734;2022-09-02T01:15:39;13.40;99.90
57652;DHT22;43480;53.116;6.734;2022-09-02T01:18:05;13.40;99.90
57652;DHT22;43480;53.116;6.734;2022-09-02T01:20:31;13.30;99.90
57652;DHT22;43480;53.116;6.734;2022-09-02T01:22:57;13.30;99.90
57652;DHT22;43480;53.116;6.734;2022-09-02T01:25:25;13.20;99.90
57652;DHT22;43480;53.116;6.734;2022-09-02T01:27:51;13.20;99.90
57652;DHT22;43480;53.116;6.734;2022-09-02T01:30:18;13.20;99.90
57652;DHT22;43480;53.116;6.734;2022-09-02T01:32:44;13.20;99.90
57652;DHT22;43480;53.116;6.734;2022-09-02T01:35:10;13.20;99.90
57652;DHT22;43480;53.116;6.734;2022-09-02T01:37:37;13.20;99.90
57652;DHT22;43480;53.116;6.734;2022-09-02T01:40:04;13.20;99.90
57652;DHT22;43480;53.116;6.734;2022-09-02T01:42:30;13.20;99.90
57652;DHT22;43480;53.116;6.734;2022-09-02T01:44:56;13.10;99.90
57652;DHT22;43480;53.116;6.734;2022-09-02T01:47:23;13.10;99.90
57652;DHT22;43480;53.116;6.734;2022-09-02T01:49:49;13.10;99.90
57652;DHT22;43480;53.116;6.734;2022-09-02T01:52:15;13.00;99.90
57652;DHT22;43480;53.116;6.734;2022-09-02T01:54:41;13.00;99.90
57652;DHT22;43480;53.116;6.734;2022-09-02T01:57:07;13.00;99.90
57652;DHT22;43480;53.116;6.734;2022-09-02T01:59:32;13.00;99.90
57652;DHT22;43480;53.116;6.734;2022-09-02T02:01:58;12.90;99.90
57652;DHT22;43480;53.116;6.734;2022-09-02T02:04:24;12.90;99.90
57652;DHT22;43480;53.116;6.734;2022-09-02T02:06:50;12.80;99.90
57652;DHT22;43480;53.116;6.734;2022-09-02T02:09:15;12.80;99.90
57652;DHT22;43480;53.116;6.734;2022-09-02T02:11:41;12.70;99.90
57652;DHT22;43480;53.116;6.734;2022-09-02T02:14:07;12.70;99.90
57652;DHT22;43480;53.116;6.734;2022-09-02T02:16:33;12.70;99.90
57652;DHT22;43480;53.116;6.734;2022-09-02T02:18:58;12.70;99.90
57652;DHT22;43480;53.116;6.734;2022-09-02T02:21:24;12.70;99.90
57652;DHT22;43480;53.116;6.734;2022-09-02T02:23:50;12.70;99.90
57652;DHT22;43480;53.116;6.734;2022-09-02T02:26:15;12.70;99.90
57652;DHT22;43480;53.116;6.734;2022-09-02T02:28:41;12.70;99.90
57652;DHT22;43480;53.116;6.734;2022-09-02T02:31:07;12.70;99.90
57652;DHT22;43480;53.116;6.734;2022-09-02T02:33:33;12.60;99.90
57652;DHT22;43480;53.116;6.734;2022-09-02T02:36:00;12.60;99.90
57652;DHT22;43480;53.116;6.734;2022-09-02T02:38:25;12.60;99.90
57652;DHT22;43480;53.116;6.734;2022-09-02T02:40:54;12.50;99.90
57652;DHT22;43480;53.116;6.734;2022-09-02T02:43:22;12.50;99.90
57652;DHT22;43480;53.116;6.734;2022-09-02T02:45:48;12.40;99.90
57652;DHT22;43480;53.116;6.734;2022-09-02T02:48:13;12.40;99.90
57652;DHT22;43480;53.116;6.734;2022-09-02T02:50:39;12.40;99.90
57652;DHT22;43480;53.116;6.734;2022-09-02T02:53:04;12.40;99.90
57652;DHT22;43480;53.116;6.734;2022-09-02T02:55:30;12.40;99.90
57652;DHT22;43480;53.116;6.734;2022-09-02T02:57:55;12.40;99.90
57652;DHT22;43480;53.116;6.734;2022-09-02T03:00:25;12.40;99.90
57652;DHT22;43480;53.116;6.734;2022-09-02T03:02:57;12.40;99.90
57652;DHT22;43480;53.116;6.734;2022-09-02T03:05:23;12.40;99.90
57652;DHT22;43480;53.116;6.734;2022-09-02T03:07:49;12.40;99.90
57652;DHT22;43480;53.116;6.734;2022-09-02T03:10:15;12.40;99.90
57652;DHT22;43480;53.116;6.734;2022-09-02T03:12:40;12.30;99.90
57652;DHT22;43480;53.116;6.734;2022-09-02T03:15:06;12.40;99.90
57652;DHT22;43480;53.116;6.734;2022-09-02T03:17:32;12.30;99.90
57652;DHT22;43480;53.116;6.734;2022-09-02T03:19:58;12.20;99.90
57652;DHT22;43480;53.116;6.734;2022-09-02T03:22:25;12.20;99.90
57652;DHT22;43480;53.116;6.734;2022-09-02T03:24:50;12.20;99.90
57652;DHT22;43480;53.116;6.734;2022-09-02T03:27:16;12.10;99.90
57652;DHT22;43480;53.116;6.734;2022-09-02T03:29:41;12.10;99.90
57652;DHT22;43480;53.116;6.734;2022-09-02T03:32:08;12.00;99.90
57652;DHT22;43480;53.116;6.734;2022-09-02T03:34:34;12.00;99.90
57652;DHT22;43480;53.116;6.734;2022-09-02T03:36:59;12.00;99.90
57652;DHT22;43480;53.116;6.734;2022-09-02T03:39:25;12.00;99.90
57652;DHT22;43480;53.116;6.734;2022-09-02T03:41:50;12.00;99.90
57652;DHT22;43480;53.116;6.734;2022-09-02T03:44:17;11.90;99.90
57652;DHT22;43480;53.116;6.734;2022-09-02T03:46:43;11.90;99.90
57652;DHT22;43480;53.116;6.734;2022-09-02T03:49:09;11.80;99.90
57652;DHT22;43480;53.116;6.734;2022-09-02T03:51:38;11.80;99.90
57652;DHT22;43480;53.116;6.734;2022-09-02T03:54:03;11.80;99.90
57652;DHT22;43480;53.116;6.734;2022-09-02T03:56:31;11.80;99.90
57652;DHT22;43480;53.116;6.734;2022-09-02T03:58:56;11.70;99.90
57652;DHT22;43480;53.116;6.734;2022-09-02T04:01:23;11.70;99.90
57652;DHT22;43480;53.116;6.734;2022-09-02T04:03:49;11.60;99.90
57652;DHT22;43480;53.116;6.734;2022-09-02T04:06:15;11.60;99.90
57652;DHT22;43480;53.116;6.734;2022-09-02T04:08:41;11.50;99.90
57652;DHT22;43480;53.116;6.734;2022-09-02T04:11:10;11.50;99.90
57652;DHT22;43480;53.116;6.734;2022-09-02T04:13:36;11.40;99.90
57652;DHT22;43480;53.116;6.734;2022-09-02T04:16:08;11.40;99.90
57652;DHT22;43480;53.116;6.734;2022-09-02T04:18:34;11.40;99.90
57652;DHT22;43480;53.116;6.734;2022-09-02T04:20:59;11.40;99.90
57652;DHT22;43480;53.116;6.734;2022-09-02T04:23:25;11.40;99.90
57652;DHT22;43480;53.116;6.734;2022-09-02T04:25:50;11.40;99.90
57652;DHT22;43480;53.116;6.734;2022-09-02T04:28:16;11.40;99.90
57652;DHT22;43480;53.116;6.734;2022-09-02T04:30:42;11.40;99.90
57652;DHT22;43480;53.116;6.734;2022-09-02T04:33:07;11.40;99.90
57652;DHT22;43480;53.116;6.734;2022-09-02T04:35:33;11.50;99.90
57652;DHT22;43480;53.116;6.734;2022-09-02T04:38:00;11.50;99.90
57652;DHT22;43480;53.116;6.734;2022-09-02T04:40:26;11.50;99.90
57652;DHT22;43480;53.116;6.734;2022-09-02T04:42:52;11.50;99.90
57652;DHT22;43480;53.116;6.734;2022-09-02T04:45:18;11.40;99.90
57652;DHT22;43480;53.116;6.734;2022-09-02T04:47:43;11.30;99.90
57652;DHT22;43480;53.116;6.734;2022-09-02T04:50:09;11.20;99.90
57652;DHT22;43480;53.116;6.734;2022-09-02T04:52:35;11.10;99.90
57652;DHT22;43480;53.116;6.734;2022-09-02T04:55:00;11.00;99.90
57652;DHT22;43480;53.116;6.734;2022-09-02T04:57:26;10.90;99.90
57652;DHT22;43480;53.116;6.734;2022-09-02T04:59:51;10.80;99.90
57652;DHT22;43480;53.116;6.734;2022-09-02T05:02:17;10.80;99.90
57652;DHT22;43480;53.116;6.734;2022-09-02T05:04:44;10.80;99.90
57652;DHT22;43480;53.116;6.734;2022-09-02T05:07:10;10.80;99.90
57652;DHT22;43480;53.116;6.734;2022-09-02T05:09:36;10.90;99.90
57652;DHT22;43480;53.116;6.734;2022-09-02T05:12:02;10.90;99.90
57652;DHT22;43480;53.116;6.734;2022-09-02T05:14:29;11.00;99.90
57652;DHT22;43480;53.116;6.734;2022-09-02T05:16:54;11.00;99.90
57652;DHT22;43480;53.116;6.734;2022-09-02T05:19:20;11.10;99.90
57652;DHT22;43480;53.116;6.734;2022-09-02T05:21:48;11.20;99.90
57652;DHT22;43480;53.116;6.734;2022-09-02T05:24:15;11.30;99.90
57652;DHT22;43480;53.116;6.734;2022-09-02T05:26:41;11.40;99.90
57652;DHT22;43480;53.116;6.734;2022-09-02T05:29:09;11.40;99.90
57652;DHT22;43480;53.116;6.734;2022-09-02T05:31:37;11.50;99.90
57652;DHT22;43480;53.116;6.734;2022-09-02T05:34:04;11.50;99.90
57652;DHT22;43480;53.116;6.734;2022-09-02T05:36:31;11.50;99.90
57652;DHT22;43480;53.116;6.734;2022-09-02T05:38:57;11.50;99.90
57652;DHT22;43480;53.116;6.734;2022-09-02T05:41:26;11.60;99.90
57652;DHT22;43480;53.116;6.734;2022-09-02T05:43:52;11.60;99.90
57652;DHT22;43480;53.116;6.734;2022-09-02T05:46:19;11.70;99.90
57652;DHT22;43480;53.116;6.734;2022-09-02T05:48:45;11.70;99.90
57652;DHT22;43480;53.116;6.734;2022-09-02T05:51:30;11.80;99.90
57652;DHT22;43480;53.116;6.734;2022-09-02T05:53:57;11.80;99.90
57652;DHT22;43480;53.116;6.734;2022-09-02T05:56:23;11.80;99.90
57652;DHT22;43480;53.116;6.734;2022-09-02T05:58:49;11.80;99.90
57652;DHT22;43480;53.116;6.734;2022-09-02T06:01:15;11.80;99.90
57652;DHT22;43480;53.116;6.734;2022-09-02T06:03:41;12.00;99.90
57652;DHT22;43480;53.116;6.734;2022-09-02T06:06:07;12.00;99.90
57652;DHT22;43480;53.116;6.734;2022-09-02T06:08:33;12.10;99.90
57652;DHT22;43480;53.116;6.734;2022-09-02T06:10:58;12.20;99.90
57652;DHT22;43480;53.116;6.734;2022-09-02T06:13:27;12.30;99.90
57652;DHT22;43480;53.116;6.734;2022-09-02T06:15:53;12.40;99.90
57652;DHT22;43480;53.116;6.734;2022-09-02T06:18:18;12.50;99.90
57652;DHT22;43480;53.116;6.734;2022-09-02T06:20:44;12.60;99.90
57652;DHT22;43480;53.116;6.734;2022-09-02T06:23:10;12.80;99.90
57652;DHT22;43480;53.116;6.734;2022-09-02T06:25:37;12.90;99.90
57652;DHT22;43480;53.116;6.734;2022-09-02T06:28:02;13.10;99.90
57652;DHT22;43480;53.116;6.734;2022-09-02T06:30:28;13.20;99.90
57652;DHT22;43480;53.116;6.734;2022-09-02T06:32:53;13.30;99.90
57652;DHT22;43480;53.116;6.734;2022-09-02T06:35:20;13.40;99.90
57652;DHT22;43480;53.116;6.734;2022-09-02T06:37:46;13.50;99.90
57652;DHT22;43480;53.116;6.734;2022-09-02T06:40:11;13.60;99.90
57652;DHT22;43480;53.116;6.734;2022-09-02T06:42:38;13.60;99.90
57652;DHT22;43480;53.116;6.734;2022-09-02T06:45:03;13.80;99.90
57652;DHT22;43480;53.116;6.734;2022-09-02T06:47:29;13.90;99.90
57652;DHT22;43480;53.116;6.734;2022-09-02T06:49:56;14.00;99.90
57652;DHT22;43480;53.116;6.734;2022-09-02T06:52:21;14.10;99.90
57652;DHT22;43480;53.116;6.734;2022-09-02T06:54:47;14.30;99.90
57652;DHT22;43480;53.116;6.734;2022-09-02T06:57:14;14.30;99.90
57652;DHT22;43480;53.116;6.734;2022-09-02T06:59:39;14.40;99.90
57652;DHT22;43480;53.116;6.734;2022-09-02T07:02:05;14.50;99.90
57652;DHT22;43480;53.116;6.734;2022-09-02T07:04:30;14.60;99.90
57652;DHT22;43480;53.116;6.734;2022-09-02T07:07:15;14.70;99.90
57652;DHT22;43480;53.116;6.734;2022-09-02T07:09:40;14.90;99.90
57652;DHT22;43480;53.116;6.734;2022-09-02T07:12:06;15.00;99.90
57652;DHT22;43480;53.116;6.734;2022-09-02T07:14:36;15.10;99.90
57652;DHT22;43480;53.116;6.734;2022-09-02T07:17:02;15.20;99.90
57652;DHT22;43480;53.116;6.734;2022-09-02T07:19:28;15.30;99.90
57652;DHT22;43480;53.116;6.734;2022-09-02T07:21:54;15.40;99.90
57652;DHT22;43480;53.116;6.734;2022-09-02T07:24:19;15.60;99.90
57652;DHT22;43480;53.116;6.734;2022-09-02T07:26:45;15.60;99.90
57652;DHT22;43480;53.116;6.734;2022-09-02T07:29:11;15.80;99.90
57652;DHT22;43480;53.116;6.734;2022-09-02T07:31:38;15.90;99.90
57652;DHT22;43480;53.116;6.734;2022-09-02T07:34:04;16.00;99.90
57652;DHT22;43480;53.116;6.734;2022-09-02T07:36:31;16.10;99.90
57652;DHT22;43480;53.116;6.734;2022-09-02T07:38:56;16.20;99.90
57652;DHT22;43480;53.116;6.734;2022-09-02T07:41:22;16.30;99.90
57652;DHT22;43480;53.116;6.734;2022-09-02T07:43:48;16.40;99.90
57652;DHT22;43480;53.116;6.734;2022-09-02T07:46:14;16.50;99.90
57652;DHT22;43480;53.116;6.734;2022-09-02T07:48:40;16.60;99.90
57652;DHT22;43480;53.116;6.734;2022-09-02T07:51:06;16.70;99.90
57652;DHT22;43480;53.116;6.734;2022-09-02T07:53:33;16.80;99.90
57652;DHT22;43480;53.116;6.734;2022-09-02T07:55:58;16.90;99.90
57652;DHT22;43480;53.116;6.734;2022-09-02T07:58:24;17.00;99.90
57652;DHT22;43480;53.116;6.734;2022-09-02T08:00:50;17.10;99.90
57652;DHT22;43480;53.116;6.734;2022-09-02T08:03:17;17.20;99.90
57652;DHT22;43480;53.116;6.734;2022-09-02T08:05:42;17.40;99.90
57652;DHT22;43480;53.116;6.734;2022-09-02T08:08:09;17.50;99.90
57652;DHT22;43480;53.116;6.734;2022-09-02T08:10:35;17.70;99.90
57652;DHT22;43480;53.116;6.734;2022-09-02T08:13:01;17.80;99.90
57652;DHT22;43480;53.116;6.734;2022-09-02T08:15:28;18.00;99.90
57652;DHT22;43480;53.116;6.734;2022-09-02T08:17:54;18.20;99.90
57652;DHT22;43480;53.116;6.734;2022-09-02T08:20:20;18.30;99.90
57652;DHT22;43480;53.116;6.734;2022-09-02T08:22:46;18.30;99.90
57652;DHT22;43480;53.116;6.734;2022-09-02T08:25:11;18.40;99.90
57652;DHT22;43480;53.116;6.734;2022-09-02T08:27:37;18.50;99.90
57652;DHT22;43480;53.116;6.734;2022-09-02T08:30:03;18.60;99.90
57652;DHT22;43480;53.116;6.734;2022-09-02T08:32:28;18.80;99.90
57652;DHT22;43480;53.116;6.734;2022-09-02T08:34:59;19.00;99.90
57652;DHT22;43480;53.116;6.734;2022-09-02T08:37:27;19.10;99.90
57652;DHT22;43480;53.116;6.734;2022-09-02T08:39:53;19.20;99.20
57652;DHT22;43480;53.116;6.734;2022-09-02T08:44:44;19.30;99.10
57652;DHT22;43480;53.116;6.734;2022-09-02T08:47:12;19.50;98.50
57652;DHT22;43480;53.116;6.734;2022-09-02T08:49:43;19.80;98.30
57652;DHT22;43480;53.116;6.734;2022-09-02T08:52:12;20.00;97.10
57652;DHT22;43480;53.116;6.734;2022-09-02T08:54:44;20.10;96.70
57652;DHT22;43480;53.116;6.734;2022-09-02T08:57:10;20.30;96.60
57652;DHT22;43480;53.116;6.734;2022-09-02T08:59:36;20.40;95.80
57652;DHT22;43480;53.116;6.734;2022-09-02T09:02:11;20.50;95.40
57652;DHT22;43480;53.116;6.734;2022-09-02T09:10:02;21.00;93.20
57652;DHT22;43480;53.116;6.734;2022-09-02T09:14:57;21.20;92.60
57652;DHT22;43480;53.116;6.734;2022-09-02T09:20:30;21.30;92.20
57652;DHT22;43480;53.116;6.734;2022-09-02T09:22:57;21.30;91.40
57652;DHT22;43480;53.116;6.734;2022-09-02T09:25:23;21.30;91.10
57652;DHT22;43480;53.116;6.734;2022-09-02T09:27:58;21.30;90.40
57652;DHT22;43480;53.116;6.734;2022-09-02T09:30:24;21.30;90.40
57652;DHT22;43480;53.116;6.734;2022-09-02T09:32:51;21.30;90.50
57652;DHT22;43480;53.116;6.734;2022-09-02T09:35:22;21.40;90.40
57652;DHT22;43480;53.116;6.734;2022-09-02T09:37:48;21.60;90.20
57652;DHT22;43480;53.116;6.734;2022-09-02T09:42:42;21.70;89.10
57652;DHT22;43480;53.116;6.734;2022-09-02T09:45:16;21.70;86.70
57652;DHT22;43480;53.116;6.734;2022-09-02T09:47:44;21.70;88.10
57652;DHT22;43480;53.116;6.734;2022-09-02T09:50:11;21.70;87.10
57652;DHT22;43480;53.116;6.734;2022-09-02T09:52:37;21.70;88.10
57652;DHT22;43480;53.116;6.734;2022-09-02T09:55:07;22.00;88.00
57652;DHT22;43480;53.116;6.734;2022-09-02T09:57:34;22.10;85.60
57652;DHT22;43480;53.116;6.734;2022-09-02T10:00:00;22.20;85.90
57652;DHT22;43480;53.116;6.734;2022-09-02T10:02:27;22.40;86.30
57652;DHT22;43480;53.116;6.734;2022-09-02T10:04:54;22.50;83.70
57652;DHT22;43480;53.116;6.734;2022-09-02T10:07:33;22.60;82.50
57652;DHT22;43480;53.116;6.734;2022-09-02T10:12:59;22.80;82.00
57652;DHT22;43480;53.116;6.734;2022-09-02T10:15:47;22.90;82.70
57652;DHT22;43480;53.116;6.734;2022-09-02T10:18:57;23.10;80.40
57652;DHT22;43480;53.116;6.734;2022-09-02T10:21:13;23.20;80.40
57652;DHT22;43480;53.116;6.734;2022-09-02T10:23:46;23.30;79.00
57652;DHT22;43480;53.116;6.734;2022-09-02T10:36:23;23.90;73.80
57652;DHT22;43480;53.116;6.734;2022-09-02T10:38:53;24.00;74.20
57652;DHT22;43480;53.116;6.734;2022-09-02T10:41:37;24.00;73.90
57652;DHT22;43480;53.116;6.734;2022-09-02T10:49:26;24.40;72.40
57652;DHT22;43480;53.116;6.734;2022-09-02T10:51:58;24.60;70.90
57652;DHT22;43480;53.116;6.734;2022-09-02T10:57:17;24.80;69.90
57652;DHT22;43480;53.116;6.734;2022-09-02T11:02:20;25.10;68.80
57652;DHT22;43480;53.116;6.734;2022-09-02T11:04:57;25.20;68.60
57652;DHT22;43480;53.116;6.734;2022-09-02T11:07:26;25.30;67.50
57652;DHT22;43480;53.116;6.734;2022-09-02T11:09:55;25.30;67.70
57652;DHT22;43480;53.116;6.734;2022-09-02T11:15:16;25.60;67.50
57652;DHT22;43480;53.116;6.734;2022-09-02T11:17:55;25.70;66.00
57652;DHT22;43480;53.116;6.734;2022-09-02T11:20:35;25.90;65.80
57652;DHT22;43480;53.116;6.734;2022-09-02T11:25:38;26.00;64.30
57652;DHT22;43480;53.116;6.734;2022-09-02T11:30:48;26.20;63.00
57652;DHT22;43480;53.116;6.734;2022-09-02T11:33:19;26.30;61.20
57652;DHT22;43480;53.116;6.734;2022-09-02T11:35:47;26.40;61.20
57652;DHT22;43480;53.116;6.734;2022-09-02T11:46:24;27.10;61.90
57652;DHT22;43480;53.116;6.734;2022-09-02T11:49:35;27.20;57.20
57652;DHT22;43480;53.116;6.734;2022-09-02T11:51:49;27.40;56.60
57652;DHT22;43480;53.116;6.734;2022-09-02T11:54:18;27.50;56.80
57652;DHT22;43480;53.116;6.734;2022-09-02T11:56:49;27.50;55.30
57652;DHT22;43480;53.116;6.734;2022-09-02T12:02:09;27.70;55.10
57652;DHT22;43480;53.116;6.734;2022-09-02T12:04:35;27.70;57.00
57652;DHT22;43480;53.116;6.734;2022-09-02T12:15:00;28.30;54.20
57652;DHT22;43480;53.116;6.734;2022-09-02T12:17:34;28.60;52.40
57652;DHT22;43480;53.116;6.734;2022-09-02T12:20:04;28.60;51.90
57652;DHT22;43480;53.116;6.734;2022-09-02T12:22:31;28.80;52.40
57652;DHT22;43480;53.116;6.734;2022-09-02T12:25:01;29.10;52.70
57652;DHT22;43480;53.116;6.734;2022-09-02T12:27:34;28.90;50.10
57652;DHT22;43480;53.116;6.734;2022-09-02T12:30:01;28.80;51.30
57652;DHT22;43480;53.116;6.734;2022-09-02T12:37:55;29.10;50.60
57652;DHT22;43480;53.116;6.734;2022-09-02T12:40:25;29.30;50.60
57652;DHT22;43480;53.116;6.734;2022-09-02T12:42:53;29.30;49.80
57652;DHT22;43480;53.116;6.734;2022-09-02T12:45:24;29.10;48.90
57652;DHT22;43480;53.116;6.734;2022-09-02T12:48:05;29.10;49.30
57652;DHT22;43480;53.116;6.734;2022-09-02T12:50:49;29.10;48.70
57652;DHT22;43480;53.116;6.734;2022-09-02T12:56:00;28.80;49.00
57652;DHT22;43480;53.116;6.734;2022-09-02T12:58:31;28.80;49.90
57652;DHT22;43480;53.116;6.734;2022-09-02T13:01:05;28.80;48.30
57652;DHT22;43480;53.116;6.734;2022-09-02T13:03:46;28.90;49.00
57652;DHT22;43480;53.116;6.734;2022-09-02T13:19:35;30.20;48.90
57652;DHT22;43480;53.116;6.734;2022-09-02T13:22:13;30.30;48.80
57652;DHT22;43480;53.116;6.734;2022-09-02T13:24:59;30.50;47.90
57652;DHT22;43480;53.116;6.734;2022-09-02T13:27:45;30.30;46.00
57652;DHT22;43480;53.116;6.734;2022-09-02T13:30:20;29.70;48.00
57652;DHT22;43480;53.116;6.734;2022-09-02T13:32:54;29.70;49.10
57652;DHT22;43480;53.116;6.734;2022-09-02T13:35:23;30.00;48.50
57652;DHT22;43480;53.116;6.734;2022-09-02T13:37:58;30.30;46.10
57652;DHT22;43480;53.116;6.734;2022-09-02T13:40:26;30.40;46.20
57652;DHT22;43480;53.116;6.734;2022-09-02T13:42:52;30.70;48.60
57652;DHT22;43480;53.116;6.734;2022-09-02T13:45:19;30.90;46.20
57652;DHT22;43480;53.116;6.734;2022-09-02T13:47:46;31.10;46.80
57652;DHT22;43480;53.116;6.734;2022-09-02T13:50:13;31.00;44.60
57652;DHT22;43480;53.116;6.734;2022-09-02T13:52:40;31.10;45.50
57652;DHT22;43480;53.116;6.734;2022-09-02T13:55:06;31.40;46.40
57652;DHT22;43480;53.116;6.734;2022-09-02T13:57:34;31.50;44.90
57652;DHT22;43480;53.116;6.734;2022-09-02T14:00:00;31.60;44.00
57652;DHT22;43480;53.116;6.734;2022-09-02T14:02:30;31.60;44.30
57652;DHT22;43480;53.116;6.734;2022-09-02T14:04:57;31.70;44.70
57652;DHT22;43480;53.116;6.734;2022-09-02T14:07:25;31.70;43.80
57652;DHT22;43480;53.116;6.734;2022-09-02T14:09:52;31.70;44.20
57652;DHT22;43480;53.116;6.734;2022-09-02T14:12:18;31.90;43.90
57652;DHT22;43480;53.116;6.734;2022-09-02T14:14:44;32.00;43.20
57652;DHT22;43480;53.116;6.734;2022-09-02T14:17:16;32.00;44.20
57652;DHT22;43480;53.116;6.734;2022-09-02T14:19:42;32.00;43.40
57652;DHT22;43480;53.116;6.734;2022-09-02T14:22:16;32.20;44.40
57652;DHT22;43480;53.116;6.734;2022-09-02T14:24:44;31.90;43.10
57652;DHT22;43480;53.116;6.734;2022-09-02T14:27:18;31.50;44.00
57652;DHT22;43480;53.116;6.734;2022-09-02T14:29:44;31.40;42.90
57652;DHT22;43480;53.116;6.734;2022-09-02T14:34:38;31.50;43.10
57652;DHT22;43480;53.116;6.734;2022-09-02T14:40:07;31.60;43.20
57652;DHT22;43480;53.116;6.734;2022-09-02T14:42:43;31.90;42.80
57652;DHT22;43480;53.116;6.734;2022-09-02T14:45:09;32.20;43.10
57652;DHT22;43480;53.116;6.734;2022-09-02T14:47:36;32.40;41.40
57652;DHT22;43480;53.116;6.734;2022-09-02T14:50:03;32.60;40.80
57652;DHT22;43480;53.116;6.734;2022-09-02T14:52:30;32.60;41.20
57652;DHT22;43480;53.116;6.734;2022-09-02T14:54:59;32.60;41.90
57652;DHT22;43480;53.116;6.734;2022-09-02T14:57:32;32.20;41.40
57652;DHT22;43480;53.116;6.734;2022-09-02T15:00:08;31.70;43.40
57652;DHT22;43480;53.116;6.734;2022-09-02T15:02:45;31.70;42.80
57652;DHT22;43480;53.116;6.734;2022-09-02T15:05:12;31.80;41.20
57652;DHT22;43480;53.116;6.734;2022-09-02T15:07:41;31.60;42.30
57652;DHT22;43480;53.116;6.734;2022-09-02T15:10:06;31.50;42.50
57652;DHT22;43480;53.116;6.734;2022-09-02T15:12:36;31.60;42.40
57652;DHT22;43480;53.116;6.734;2022-09-02T15:15:02;31.40;41.80
57652;DHT22;43480;53.116;6.734;2022-09-02T15:17:27;31.40;42.00
57652;DHT22;43480;53.116;6.734;2022-09-02T15:19:54;31.30;42.50
57652;DHT22;43480;53.116;6.734;2022-09-02T15:22:20;31.10;42.60
57652;DHT22;43480;53.116;6.734;2022-09-02T15:24:45;31.10;42.70
57652;DHT22;43480;53.116;6.734;2022-09-02T15:27:12;31.00;42.70
57652;DHT22;43480;53.116;6.734;2022-09-02T15:29:38;30.80;42.60
57652;DHT22;43480;53.116;6.734;2022-09-02T15:32:04;30.40;42.70
57652;DHT22;43480;53.116;6.734;2022-09-02T15:34:30;30.00;43.60
57652;DHT22;43480;53.116;6.734;2022-09-02T15:36:55;29.80;44.80
57652;DHT22;43480;53.116;6.734;2022-09-02T15:39:21;29.80;44.10
57652;DHT22;43480;53.116;6.734;2022-09-02T15:41:47;29.80;44.00
57652;DHT22;43480;53.116;6.734;2022-09-02T15:44:17;29.70;44.40
57652;DHT22;43480;53.116;6.734;2022-09-02T15:46:42;29.30;44.90
57652;DHT22;43480;53.116;6.734;2022-09-02T15:49:09;29.20;45.10
57652;DHT22;43480;53.116;6.734;2022-09-02T15:51:35;29.30;46.40
57652;DHT22;43480;53.116;6.734;2022-09-02T15:54:04;29.50;46.20
57652;DHT22;43480;53.116;6.734;2022-09-02T15:56:30;29.80;44.60
57652;DHT22;43480;53.116;6.734;2022-09-02T15:58:57;29.80;45.70
57652;DHT22;43480;53.116;6.734;2022-09-02T16:01:27;30.00;45.70
57652;DHT22;43480;53.116;6.734;2022-09-02T16:03:53;30.10;45.10
57652;DHT22;43480;53.116;6.734;2022-09-02T16:06:19;30.10;44.70
57652;DHT22;43480;53.116;6.734;2022-09-02T16:08:44;29.60;44.40
57652;DHT22;43480;53.116;6.734;2022-09-02T16:11:10;29.00;45.20
57652;DHT22;43480;53.116;6.734;2022-09-02T16:13:36;28.50;47.00
57652;DHT22;43480;53.116;6.734;2022-09-02T16:16:03;28.00;46.20
57652;DHT22;43480;53.116;6.734;2022-09-02T16:18:29;27.70;46.10
57652;DHT22;43480;53.116;6.734;2022-09-02T16:20:54;27.60;46.60
57652;DHT22;43480;53.116;6.734;2022-09-02T16:23:20;27.60;46.90
57652;DHT22;43480;53.116;6.734;2022-09-02T16:25:45;27.40;47.40
57652;DHT22;43480;53.116;6.734;2022-09-02T16:28:11;27.30;47.20
57652;DHT22;43480;53.116;6.734;2022-09-02T16:30:37;27.10;47.30
57652;DHT22;43480;53.116;6.734;2022-09-02T16:33:03;26.90;48.10
57652;DHT22;43480;53.116;6.734;2022-09-02T16:35:28;26.60;48.70
57652;DHT22;43480;53.116;6.734;2022-09-02T16:37:53;26.40;50.00
57652;DHT22;43480;53.116;6.734;2022-09-02T16:40:21;26.20;49.30
57652;DHT22;43480;53.116;6.734;2022-09-02T16:42:47;26.00;49.70
57652;DHT22;43480;53.116;6.734;2022-09-02T16:45:13;25.80;50.50
57652;DHT22;43480;53.116;6.734;2022-09-02T16:47:39;25.70;51.10
57652;DHT22;43480;53.116;6.734;2022-09-02T16:50:04;25.70;51.00
57652;DHT22;43480;53.116;6.734;2022-09-02T16:52:30;25.60;51.00
57652;DHT22;43480;53.116;6.734;2022-09-02T16:54:59;25.50;51.60
57652;DHT22;43480;53.116;6.734;2022-09-02T16:57:25;25.60;51.60
57652;DHT22;43480;53.116;6.734;2022-09-02T16:59:50;25.70;50.80
57652;DHT22;43480;53.116;6.734;2022-09-02T17:02:16;25.80;50.50
57652;DHT22;43480;53.116;6.734;2022-09-02T17:04:41;25.90;50.60
57652;DHT22;43480;53.116;6.734;2022-09-02T17:07:07;26.00;51.00
57652;DHT22;43480;53.116;6.734;2022-09-02T17:09:33;26.10;50.70